Time;durP1;ratioP1;P1;durP2;ratioP2;P2;SDS_P1;SDS_P2;PMS_P1;PMS_P2;Temp;Humidity;BMP_temperature;BMP_pressure;BME280_temperature;BME280_humidity;BME280_pressure;Samples;Min_cycle;Max_cycle;Signal;HPM_P1;HPM_P2
2021/03/23 00:01:16;;;;;;;3.60;2.17;;;;;;;17.75;20.26;98839.75;1766292;80;21212;-12
2021/03/23 00:03:47;;;;;;;3.72;2.52;;;;;;;17.74;20.35;98831.39;1763908;80;21262;-11
2021/03/23 00:06:19;;;;;;;4.85;3.10;;;;;;;17.74;21.13;98836.70;1713331;83;21244;-14
2021/03/23 00:08:49;;;;;;;8.95;3.33;;;;;;;17.78;22.73;98836.83;1685947;83;21167;-15
2021/03/23 00:11:29;;;;;;;5.00;3.52;;;;;;;17.85;24.11;98841.20;1710266;83;21144;-12
2021/03/23 00:14:00;;;;;;;6.67;3.77;;;;;;;17.92;25.45;98836.30;1757903;80;21541;-14
2021/03/23 00:16:35;;;;;;;4.97;3.90;;;;;;;17.98;26.66;98843.83;1733807;80;21222;-15
2021/03/23 00:19:05;;;;;;;6.37;4.10;;;;;;;18.04;27.50;98836.72;1749222;80;21176;-13
2021/03/23 00:21:33;;;;;;;6.28;4.08;;;;;;;18.09;28.10;98841.20;1765644;80;21520;-12
2021/03/23 00:24:02;;;;;;;5.75;4.25;;;;;;;18.14;28.78;98832.84;1710364;83;21200;-12
2021/03/23 00:26:29;;;;;;;5.62;4.40;;;;;;;18.17;29.63;98829.48;1770740;80;21655;-12
2021/03/23 00:28:57;;;;;;;6.17;4.20;;;;;;;18.23;30.41;98837.48;1771055;80;21196;-13
2021/03/23 00:31:30;;;;;;;8.40;4.05;;;;;;;18.29;30.86;98833.48;1728075;80;21194;-12
2021/03/23 00:34:01;;;;;;;9.30;4.22;;;;;;;18.32;31.15;98831.42;1735000;80;21592;-13
2021/03/23 00:36:37;;;;;;;6.45;4.35;;;;;;;18.36;31.41;98839.55;1715998;80;21129;-14
2021/03/23 00:39:07;;;;;;;4.83;4.15;;;;;;;18.39;31.45;98829.13;1761762;80;21165;-12
2021/03/23 00:41:38;;;;;;;6.03;4.70;;;;;;;18.42;31.64;98838.22;1775528;80;21141;-13
2021/03/23 00:44:10;;;;;;;4.62;3.95;;;;;;;18.46;31.79;98836.16;1759326;80;21146;-13
2021/03/23 00:46:40;;;;;;;5.28;3.90;;;;;;;18.47;31.90;98830.72;1742388;80;21136;-13
2021/03/23 00:49:30;;;;;;;5.35;3.80;;;;;;;18.51;31.97;98830.86;1763736;80;21195;-11
2021/03/23 00:52:07;;;;;;;4.55;3.75;;;;;;;18.53;32.16;98830.25;1772502;80;21157;-12
2021/03/23 00:54:35;;;;;;;5.00;4.00;;;;;;;18.56;32.11;98827.34;1769423;80;21368;-14
2021/03/23 00:57:04;;;;;;;4.45;4.03;;;;;;;18.61;32.10;98830.12;1767572;80;21216;-12
2021/03/23 00:59:31;;;;;;;4.47;3.70;;;;;;;18.65;32.22;98834.25;1767724;80;21620;-12
2021/03/23 01:01:59;;;;;;;4.17;3.80;;;;;;;18.70;32.26;98834.73;1763208;80;21187;-13
2021/03/23 01:04:28;;;;;;;4.62;4.20;;;;;;;18.72;32.48;98832.79;1758248;80;21117;-12
2021/03/23 01:06:57;;;;;;;4.58;3.60;;;;;;;18.73;32.64;98830.00;1766049;80;21233;-11
2021/03/23 01:09:25;;;;;;;4.30;3.87;;;;;;;18.77;32.73;98829.77;1762110;80;21162;-14
2021/03/23 01:11:53;;;;;;;5.08;3.75;;;;;;;18.82;32.77;98833.75;1759095;80;21233;-11
2021/03/23 01:14:21;;;;;;;6.30;4.10;;;;;;;18.87;32.86;98826.27;1764375;80;21216;-11
2021/03/23 01:16:48;;;;;;;5.72;4.05;;;;;;;18.93;32.91;98832.45;1764369;80;21097;-11
2021/03/23 01:19:16;;;;;;;5.20;4.00;;;;;;;19.01;32.91;98825.64;1740218;80;21481;-11
2021/03/23 01:21:43;;;;;;;4.40;3.95;;;;;;;19.08;32.94;98825.50;1760139;80;21995;-13
2021/03/23 01:24:12;;;;;;;5.22;4.10;;;;;;;19.17;32.90;98830.10;1729161;80;21568;-11
2021/03/23 01:26:40;;;;;;;4.60;4.03;;;;;;;19.26;32.91;98830.67;1764777;80;21231;-11
2021/03/23 01:29:09;;;;;;;5.40;3.80;;;;;;;19.31;32.83;98824.47;1760174;80;21664;-11
2021/03/23 01:31:37;;;;;;;5.00;3.90;;;;;;;19.38;32.86;98826.65;1763457;80;21624;-12
2021/03/23 01:34:05;;;;;;;3.67;3.37;;;;;;;19.44;32.85;98828.33;1755914;80;21181;-11
2021/03/23 01:36:37;;;;;;;4.03;3.60;;;;;;;19.49;32.77;98826.62;1702126;82;21155;-11
2021/03/23 01:39:05;;;;;;;3.75;3.45;;;;;;;19.55;32.73;98831.46;1768168;80;21188;-12
2021/03/23 01:41:33;;;;;;;4.90;3.67;;;;;;;19.58;32.73;98833.84;1770885;80;21157;-11
2021/03/23 01:44:01;;;;;;;3.92;3.50;;;;;;;19.63;32.76;98832.98;1757614;80;21982;-12
2021/03/23 01:46:43;;;;;;;6.60;4.15;;;;;;;19.66;32.68;98832.73;1766674;80;21270;-13
2021/03/23 01:49:18;;;;;;;3.98;3.67;;;;;;;19.70;32.70;98829.81;1758196;80;21678;-16
2021/03/23 01:51:51;;;;;;;3.92;3.62;;;;;;;19.73;32.69;98826.89;1753396;80;21216;-16
2021/03/23 01:54:23;;;;;;;6.65;4.40;;;;;;;19.75;32.67;98827.63;1730408;80;21214;-14
2021/03/23 01:56:52;;;;;;;6.37;3.42;;;;;;;19.80;32.66;98824.09;1737534;80;21182;-14
2021/03/23 01:59:19;;;;;;;5.95;3.85;;;;;;;19.82;32.62;98826.13;1738163;80;21165;-11
2021/03/23 02:01:47;;;;;;;60.30;32.17;;;;;;;19.84;31.62;98828.21;1708032;82;21181;-14
2021/03/23 02:04:14;;;;;;;44.88;23.15;;;;;;;19.67;29.23;98818.42;1739811;80;21318;-12
2021/03/23 02:06:48;;;;;;;25.85;16.30;;;;;;;19.48;29.69;98824.45;1757904;80;21221;-13
2021/03/23 02:09:20;;;;;;;25.72;14.98;;;;;;;19.45;30.53;98825.16;1754186;80;23132;-11
2021/03/23 02:11:57;;;;;;;24.75;13.88;;;;;;;19.47;30.89;98823.23;1752393;80;21240;-14
2021/03/23 02:14:28;;;;;;;23.75;13.75;;;;;;;19.51;31.00;98830.00;1752018;80;21232;-12
2021/03/23 02:17:28;;;;;;;20.48;13.35;;;;;;;19.55;31.09;98828.80;1701825;81;21252;-12
2021/03/23 02:20:09;;;;;;;22.73;12.15;;;;;;;19.59;31.12;98824.88;1760401;80;21648;-12
2021/03/23 02:22:40;;;;;;;20.60;12.10;;;;;;;19.65;31.13;98829.72;1753592;80;21252;-12
2021/03/23 02:25:22;;;;;;;24.72;12.78;;;;;;;19.69;31.17;98822.30;1742194;80;21216;-12
2021/03/23 02:27:52;;;;;;;19.77;11.43;;;;;;;19.72;31.19;98827.84;1758266;80;21286;-13
2021/03/23 02:30:33;;;;;;;17.65;11.48;;;;;;;19.75;31.19;98823.62;1741651;80;21217;-12
2021/03/23 02:33:01;;;;;;;17.15;10.53;;;;;;;19.79;31.20;98829.09;1762503;80;21196;-13
2021/03/23 02:35:32;;;;;;;20.35;10.85;;;;;;;19.83;31.19;98829.17;1756268;80;21365;-15
2021/03/23 02:38:00;;;;;;;17.00;10.58;;;;;;;19.85;31.20;98829.88;1745962;80;21265;-12
2021/03/23 02:40:30;;;;;;;17.82;10.98;;;;;;;19.87;31.18;98823.95;1748811;80;21143;-11
2021/03/23 02:43:01;;;;;;;17.25;10.03;;;;;;;19.88;31.21;98828.30;1745140;80;22222;-11
2021/03/23 02:45:31;;;;;;;16.62;9.70;;;;;;;19.90;31.23;98834.34;1735107;81;21617;-12
2021/03/23 02:47:59;;;;;;;19.07;9.68;;;;;;;19.91;31.25;98830.72;1747394;80;21658;-14
2021/03/23 02:50:27;;;;;;;19.12;9.13;;;;;;;19.93;31.26;98829.25;1751611;80;21692;-14
2021/03/23 02:52:54;;;;;;;13.85;9.30;;;;;;;19.95;31.27;98828.63;1758272;80;21193;-12
2021/03/23 02:55:22;;;;;;;15.95;9.53;;;;;;;19.97;31.27;98830.67;1749269;80;21307;-12
2021/03/23 02:57:49;;;;;;;12.78;8.83;;;;;;;19.98;31.29;98828.38;1752212;80;21218;-13
2021/03/23 03:00:19;;;;;;;12.40;8.45;;;;;;;19.99;31.29;98831.41;1751253;80;21220;-13
2021/03/23 03:02:48;;;;;;;14.30;8.83;;;;;;;20.01;31.31;98836.13;1749803;80;21256;-14
2021/03/23 03:05:16;;;;;;;10.72;8.15;;;;;;;20.02;31.35;98838.67;1735944;80;21531;-13
2021/03/23 03:07:47;;;;;;;11.53;7.70;;;;;;;20.03;31.37;98840.34;1748646;80;21303;-12
2021/03/23 03:10:14;;;;;;;10.78;7.58;;;;;;;20.04;31.35;98840.72;1749940;80;21210;-12
2021/03/23 03:12:42;;;;;;;10.43;7.87;;;;;;;20.04;31.40;98838.05;1747025;80;21237;-12
2021/03/23 03:15:11;;;;;;;11.15;7.92;;;;;;;20.06;31.43;98837.08;1760007;80;21196;-15
2021/03/23 03:17:40;;;;;;;11.93;8.03;;;;;;;20.07;31.45;98836.09;1689184;83;21668;-12
2021/03/23 03:20:10;;;;;;;10.10;6.92;;;;;;;20.08;31.49;98832.45;1737457;80;21069;-12
2021/03/23 03:22:37;;;;;;;9.45;6.55;;;;;;;20.08;31.53;98836.45;1737045;80;21148;-14
2021/03/23 03:25:08;;;;;;;11.08;6.80;;;;;;;20.09;31.54;98836.80;1728718;80;21170;-12
2021/03/23 03:27:36;;;;;;;11.25;7.10;;;;;;;20.09;31.57;98830.98;1754453;80;21663;-14
2021/03/23 03:30:10;;;;;;;8.73;6.53;;;;;;;20.12;31.57;98832.53;1701958;82;21261;-14
2021/03/23 03:32:37;;;;;;;13.17;7.03;;;;;;;20.12;31.62;98831.20;1755049;80;21208;-11
2021/03/23 03:35:07;;;;;;;9.03;6.62;;;;;;;20.14;31.68;98837.25;1764532;80;21199;-14
2021/03/23 03:37:35;;;;;;;11.88;6.92;;;;;;;20.13;31.70;98832.41;1759378;80;21220;-12
2021/03/23 03:40:07;;;;;;;8.43;6.17;;;;;;;20.14;31.77;98840.79;1759171;80;21282;-14
2021/03/23 03:42:34;;;;;;;9.00;6.20;;;;;;;20.15;31.77;98836.28;1719511;82;21650;-14
2021/03/23 03:45:08;;;;;;;7.55;5.55;;;;;;;20.16;31.82;98842.00;1750524;80;21699;-12
2021/03/23 03:47:35;;;;;;;7.78;5.97;;;;;;;20.15;31.83;98838.95;1718542;81;21221;-15
2021/03/23 03:50:06;;;;;;;7.90;5.97;;;;;;;20.16;31.88;98839.33;1754308;80;21389;-12
2021/03/23 03:52:35;;;;;;;7.62;5.92;;;;;;;20.17;31.91;98843.67;1749363;80;21201;-13
2021/03/23 03:55:04;;;;;;;9.40;5.50;;;;;;;20.18;31.90;98844.04;1727066;80;21209;-13
2021/03/23 03:57:32;;;;;;;11.88;5.60;;;;;;;20.18;31.95;98842.70;1751334;80;22427;-12
2021/03/23 04:00:00;;;;;;;7.40;5.50;;;;;;;20.18;31.96;98846.71;1730426;80;21704;-13
2021/03/23 04:02:27;;;;;;;10.85;5.42;;;;;;;20.18;32.02;98847.55;1745743;80;21342;-15
2021/03/23 04:04:58;;;;;;;7.67;5.80;;;;;;;20.19;32.03;98850.59;1751316;80;21149;-14
2021/03/23 04:07:28;;;;;;;6.42;4.95;;;;;;;20.20;32.07;98858.11;1754926;80;21133;-14
2021/03/23 04:09:55;;;;;;;7.17;5.30;;;;;;;20.20;32.09;98850.09;1757642;80;21460;-13
2021/03/23 04:12:23;;;;;;;7.75;5.37;;;;;;;20.22;32.13;98854.34;1757557;80;21566;-13
2021/03/23 04:14:50;;;;;;;6.65;5.17;;;;;;;20.24;32.09;98858.22;1749013;80;21431;-12
2021/03/23 04:17:17;;;;;;;6.05;4.72;;;;;;;20.28;32.10;98862.30;1756569;80;21615;-12
2021/03/23 04:19:45;;;;;;;9.05;4.87;;;;;;;20.33;32.03;98863.26;1746856;80;21133;-14
2021/03/23 04:22:14;;;;;;;5.60;4.78;;;;;;;20.36;32.00;98861.16;1741402;80;21196;-12
2021/03/23 04:24:41;;;;;;;5.03;4.55;;;;;;;20.44;31.91;98860.48;1748039;80;21629;-13
2021/03/23 04:27:09;;;;;;;7.03;4.55;;;;;;;20.49;31.89;98864.95;1745871;80;22088;-12
2021/03/23 04:29:37;;;;;;;6.42;5.15;;;;;;;20.55;31.75;98863.59;1747568;80;21179;-12
2021/03/23 04:32:07;;;;;;;4.87;4.25;;;;;;;20.60;31.70;98862.20;1717666;82;21595;-12
2021/03/23 04:34:35;;;;;;;5.62;4.35;;;;;;;20.68;31.61;98861.58;1749133;80;21193;-12
2021/03/23 04:37:06;;;;;;;5.05;4.10;;;;;;;20.76;31.52;98868.44;1761177;80;21173;-14
2021/03/23 04:39:36;;;;;;;4.35;3.95;;;;;;;20.82;31.41;98863.54;1737398;80;21219;-12
2021/03/23 04:42:07;;;;;;;4.80;4.40;;;;;;;20.87;31.31;98864.81;1751187;80;21214;-14
2021/03/23 04:44:34;;;;;;;5.83;4.37;;;;;;;20.94;31.22;98869.14;1763700;80;21257;-12
2021/03/23 04:47:02;;;;;;;5.55;4.47;;;;;;;21.01;31.19;98866.27;1733711;80;21252;-14
2021/03/23 04:49:30;;;;;;;4.75;3.70;;;;;;;21.08;31.09;98867.44;1754765;80;21172;-12
2021/03/23 04:51:57;;;;;;;4.87;3.98;;;;;;;21.14;31.01;98865.53;1752054;80;22925;-14
2021/03/23 04:54:24;;;;;;;4.75;3.98;;;;;;;21.21;30.97;98867.67;1746485;80;21795;-12
2021/03/23 04:56:54;;;;;;;6.67;3.58;;;;;;;21.27;30.90;98861.78;1715526;81;21237;-13
2021/03/23 04:59:21;;;;;;;4.12;3.70;;;;;;;21.33;30.85;98869.23;1741582;80;21219;-11
2021/03/23 05:01:50;;;;;;;5.10;3.75;;;;;;;21.39;30.77;98870.55;1741409;81;21219;-11
2021/03/23 05:04:18;;;;;;;3.77;3.33;;;;;;;21.44;30.74;98870.47;1736251;81;21256;-14
2021/03/23 05:06:47;;;;;;;3.70;3.30;;;;;;;21.48;30.67;98874.58;1721125;80;21210;-12
2021/03/23 05:09:15;;;;;;;4.92;4.00;;;;;;;21.52;30.66;98877.34;1739219;80;21229;-12
2021/03/23 05:11:43;;;;;;;4.37;3.75;;;;;;;21.56;30.61;98879.25;1739676;80;21874;-12
2021/03/23 05:14:10;;;;;;;4.35;3.42;;;;;;;21.58;30.56;98876.44;1739674;80;21194;-14
2021/03/23 05:16:37;;;;;;;4.33;3.60;;;;;;;21.61;30.60;98869.47;1744830;80;21225;-13
2021/03/23 05:19:05;;;;;;;4.30;3.25;;;;;;;21.63;30.55;98874.19;1729563;80;21193;-14
2021/03/23 05:21:33;;;;;;;4.10;3.40;;;;;;;21.64;30.54;98869.20;1737404;80;21229;-12
2021/03/23 05:24:01;;;;;;;4.65;3.22;;;;;;;21.64;30.58;98868.70;1747458;80;21222;-12
2021/03/23 05:26:30;;;;;;;4.03;3.27;;;;;;;21.67;30.53;98878.27;1701384;80;21189;-13
2021/03/23 05:29:00;;;;;;;5.25;3.65;;;;;;;21.67;30.57;98875.59;1742065;80;21171;-14
2021/03/23 05:31:27;;;;;;;3.67;3.33;;;;;;;21.68;30.71;98879.97;1740812;80;21299;-13
2021/03/23 05:33:56;;;;;;;3.42;3.12;;;;;;;21.68;30.79;98879.97;1736497;80;21174;-14
2021/03/23 05:36:28;;;;;;;4.62;3.00;;;;;;;21.68;30.87;98880.80;1707266;82;21159;-11
2021/03/23 05:38:55;;;;;;;3.47;2.77;;;;;;;21.69;30.98;98880.34;1738547;80;22420;-13
2021/03/23 05:41:49;;;;;;;2.58;2.37;;;;;;;21.69;31.05;98888.37;1743235;80;21220;-12
2021/03/23 05:45:03;;;;;;;5.95;2.42;;;;;;;21.69;30.75;98880.34;1734831;80;21233;-13
2021/03/23 05:47:34;;;;;;;8.30;2.62;;;;;;;21.64;29.87;98893.30;1744167;81;21135;-13
2021/03/23 05:50:23;;;;;;;3.05;2.35;;;;;;;21.53;28.34;98886.22;1751073;81;21193;-11
2021/03/23 05:52:59;;;;;;;7.37;2.83;;;;;;;21.39;27.65;98891.45;1715735;80;21294;-13
2021/03/23 05:55:40;;;;;;;6.83;2.65;;;;;;;21.26;26.62;98893.52;1766788;80;21224;-13
2021/03/23 05:58:19;;;;;;;9.93;2.87;;;;;;;21.04;25.52;98886.56;1730109;79;21220;-18
2021/03/23 06:01:01;;;;;;;3.55;2.47;;;;;;;20.84;26.14;98885.63;1761006;79;21109;-15
2021/03/23 06:03:45;;;;;;;3.72;2.33;;;;;;;20.71;27.00;98887.18;1716421;79;21115;-16
2021/03/23 06:06:35;;;;;;;4.03;2.50;;;;;;;20.63;26.93;98881.65;1728249;79;21947;-15
2021/03/23 06:09:03;;;;;;;3.55;2.40;;;;;;;20.54;27.25;98881.92;1759790;79;21421;-15
2021/03/23 06:11:36;;;;;;;4.75;2.72;;;;;;;20.51;27.59;98883.05;1729476;79;21668;-14
2021/03/23 06:14:32;;;;;;;5.17;2.80;;;;;;;20.52;28.10;98883.89;1711729;81;21185;-14
2021/03/23 06:17:20;;;;;;;3.52;2.90;;;;;;;20.48;27.90;98890.49;1771330;79;21234;-18
2021/03/23 06:20:18;;;;;;;4.17;2.50;;;;;;;20.42;26.54;98889.17;1745310;79;21193;-16
2021/03/23 06:23:29;;;;;;;5.70;2.67;;;;;;;20.33;25.68;98896.16;1763856;80;21240;-18
2021/03/23 06:26:15;;;;;;;3.15;2.47;;;;;;;20.29;25.61;98893.86;1765344;79;21214;-14
2021/03/23 06:29:10;;;;;;;3.52;2.83;;;;;;;20.14;24.36;98901.34;1767818;79;21190;-14
2021/03/23 06:32:12;;;;;;;11.25;2.90;;;;;;;19.92;24.05;98903.17;1721298;82;21712;-15
2021/03/23 06:34:40;;;;;;;7.53;4.15;;;;;;;19.81;24.94;98905.88;1699013;83;21201;-14
2021/03/23 06:37:31;;;;;;;7.72;5.20;;;;;;;19.72;22.90;98903.91;1683793;83;22907;-17
2021/03/23 06:39:59;;;;;;;8.05;4.67;;;;;;;19.49;22.92;98914.66;1704641;83;21208;-16
2021/03/23 06:42:46;;;;;;;7.67;3.80;;;;;;;19.21;22.24;98912.88;1694294;83;21255;-14
2021/03/23 06:45:35;;;;;;;9.90;3.60;;;;;;;18.93;21.61;98927.08;1693551;83;21913;-14
2021/03/23 06:48:24;;;;;;;5.58;3.60;;;;;;;18.38;21.91;98924.67;1701647;82;21220;-15
2021/03/23 06:51:16;;;;;;;14.87;4.28;;;;;;;18.15;23.94;98925.91;1733589;79;21823;-15
2021/03/23 06:53:47;;;;;;;6.60;3.60;;;;;;;18.30;25.74;98923.06;1761294;79;21141;-14
2021/03/23 06:56:27;;;;;;;7.12;4.35;;;;;;;18.59;26.33;98926.64;1757677;80;21151;-14
2021/03/23 06:59:15;;;;;;;5.37;3.22;;;;;;;18.83;26.64;98926.11;1757208;80;21120;-14
2021/03/23 07:01:46;;;;;;;6.30;3.85;;;;;;;19.10;26.82;98920.91;1760630;80;21252;-16
2021/03/23 07:04:26;;;;;;;5.05;3.40;;;;;;;19.37;27.01;98918.34;1761942;80;21390;-14
2021/03/23 07:07:14;;;;;;;9.38;3.12;;;;;;;19.59;27.12;98918.77;1732438;80;21210;-15
2021/03/23 07:09:57;;;;;;;7.50;3.10;;;;;;;19.80;27.17;98921.52;1761513;80;21164;-14
2021/03/23 07:12:41;;;;;;;5.40;3.10;;;;;;;20.00;27.26;98916.70;1756682;80;21196;-15
2021/03/23 07:15:37;;;;;;;6.20;3.02;;;;;;;20.19;27.25;98916.50;1763831;80;21576;-14
2021/03/23 07:18:19;;;;;;;3.05;2.75;;;;;;;20.35;27.33;98918.23;1770780;80;21152;-14
2021/03/23 07:20:49;;;;;;;7.92;2.80;;;;;;;20.51;27.49;98906.23;1759345;79;21714;-15
2021/03/23 07:23:44;;;;;;;6.72;2.50;;;;;;;20.64;27.58;98911.42;1731516;80;21184;-14
2021/03/23 07:26:29;;;;;;;4.70;2.60;;;;;;;20.75;27.59;98914.86;1765710;80;21176;-15
2021/03/23 07:29:15;;;;;;;3.30;3.00;;;;;;;20.88;27.67;98913.78;1768859;80;21262;-17
2021/03/23 07:32:08;;;;;;;2.92;2.62;;;;;;;20.99;27.78;98908.35;1735285;80;21388;-16
2021/03/23 07:35:04;;;;;;;4.55;2.67;;;;;;;21.12;27.81;98913.48;1756829;80;21693;-14
2021/03/23 07:37:45;;;;;;;5.13;2.30;;;;;;;21.21;27.69;98915.33;1732078;82;21248;-14
2021/03/23 07:40:44;;;;;;;4.78;2.22;;;;;;;21.29;27.75;98914.66;1738702;80;21184;-17
2021/03/23 07:43:48;;;;;;;4.03;2.52;;;;;;;21.34;27.68;98907.91;1764515;80;21473;-14
2021/03/23 07:46:26;;;;;;;5.75;2.37;;;;;;;21.42;27.66;98909.91;1744510;80;21228;-16
2021/03/23 07:49:09;;;;;;;4.67;2.05;;;;;;;21.48;27.55;98914.72;1756791;80;21787;-15
2021/03/23 07:51:39;;;;;;;3.92;2.25;;;;;;;21.55;27.61;98908.83;1732886;80;21204;-14
2021/03/23 07:54:37;;;;;;;4.30;2.30;;;;;;;21.59;27.71;98908.92;1765157;80;21282;-14
2021/03/23 07:57:25;;;;;;;2.85;2.22;;;;;;;21.62;27.66;98907.28;1761574;80;21217;-14
2021/03/23 08:00:07;;;;;;;4.05;2.45;;;;;;;21.66;27.62;98920.27;1768153;80;21243;-15
2021/03/23 08:03:15;;;;;;;3.50;2.47;;;;;;;21.70;27.67;98900.75;1761497;80;21286;-14
2021/03/23 08:06:04;;;;;;;2.42;1.92;;;;;;;21.74;27.65;98904.86;1769675;80;21221;-15
2021/03/23 08:09:29;;;;;;;3.85;2.00;;;;;;;21.78;27.57;98906.25;1768618;80;21169;-14
2021/03/23 08:12:33;;;;;;;2.25;1.87;;;;;;;21.80;27.63;98905.62;1763952;80;22294;-16
2021/03/23 08:16:02;;;;;;;4.92;2.05;;;;;;;21.89;27.53;98903.45;1824959;77;22789;-16
2021/03/23 08:18:50;;;;;;;3.67;2.00;;;;;;;21.89;27.62;98906.13;1803843;78;21187;-17
2021/03/23 08:21:36;;;;;;;8.65;1.67;;;;;;;21.94;27.68;98900.83;1765447;79;22009;-16
2021/03/23 08:24:12;;;;;;;2.00;1.67;;;;;;;21.95;27.63;98894.50;1797379;79;21243;-18
2021/03/23 08:27:14;;;;;;;7.20;1.77;;;;;;;21.97;27.76;98892.52;1764441;78;21202;-14
2021/03/23 08:30:14;;;;;;;5.45;1.87;;;;;;;21.98;27.94;98894.22;1793112;78;21172;-15
2021/03/23 08:33:10;;;;;;;2.20;1.40;;;;;;;22.00;28.09;98890.40;1792318;78;21192;-14
2021/03/23 08:36:16;;;;;;;2.72;1.70;;;;;;;22.02;28.14;98898.30;1791508;78;21286;-18
2021/03/23 08:39:01;;;;;;;21.87;2.10;;;;;;;22.04;28.21;98893.16;1781101;78;21190;-14
2021/03/23 08:41:44;;;;;;;4.05;1.70;;;;;;;22.09;28.66;98890.07;1795463;78;21153;-15
2021/03/23 08:44:35;;;;;;;2.37;1.70;;;;;;;22.15;28.96;98886.80;1825869;77;22323;-15
2021/03/23 08:47:26;;;;;;;7.85;1.67;;;;;;;22.15;29.05;98893.50;1801663;79;21247;-15
2021/03/23 08:49:55;;;;;;;4.37;1.80;;;;;;;22.17;29.70;98896.87;1754389;79;21660;-15
2021/03/23 08:52:34;;;;;;;6.75;1.67;;;;;;;22.19;29.57;98894.92;1794460;78;21242;-17
2021/03/23 08:55:08;;;;;;;3.15;1.67;;;;;;;22.21;29.44;98886.24;1795937;78;21298;-14
2021/03/23 08:58:02;;;;;;;4.00;1.60;;;;;;;22.23;29.37;98900.33;1794685;78;21230;-14
2021/03/23 09:00:41;;;;;;;3.08;2.08;;;;;;;22.25;29.50;98886.29;1765548;78;21228;-14
2021/03/23 09:03:20;;;;;;;9.25;2.25;;;;;;;22.28;29.01;98895.06;1797696;78;21207;-18
2021/03/23 09:05:59;;;;;;;1.92;1.77;;;;;;;22.10;22.72;98887.72;1786695;78;21154;-16
2021/03/23 09:08:43;;;;;;;3.85;1.50;;;;;;;21.49;19.91;98899.03;1791812;78;21603;-14
2021/03/23 09:11:40;;;;;;;3.62;1.70;;;;;;;20.92;20.85;98899.19;1787916;78;21167;-14
2021/03/23 09:14:15;;;;;;;3.02;1.40;;;;;;;20.67;21.53;98898.63;1773600;78;21207;-14
2021/03/23 09:16:51;;;;;;;2.67;1.65;;;;;;;20.57;22.42;98887.02;1798181;78;21215;-16
2021/03/23 09:19:47;;;;;;;4.30;1.60;;;;;;;20.55;22.92;98878.28;1796362;78;21220;-17
2021/03/23 09:22:29;;;;;;;2.10;1.42;;;;;;;20.55;22.90;98879.63;1794050;78;21267;-15
2021/03/23 09:25:18;;;;;;;10.70;1.55;;;;;;;20.55;23.11;98880.96;1803810;78;21168;-14
2021/03/23 09:27:54;;;;;;;2.17;1.50;;;;;;;20.56;23.82;98875.95;1762859;79;21186;-14
2021/03/23 09:30:48;;;;;;;1.30;1.10;;;;;;;20.61;24.13;98877.77;1745108;80;21214;-14
2021/03/23 09:33:27;;;;;;;2.90;1.25;;;;;;;20.64;24.05;98874.00;1737331;80;21215;-14
2021/03/23 09:36:11;;;;;;;2.95;1.30;;;;;;;20.67;23.98;98883.93;1738780;81;21632;-15
2021/03/23 09:38:45;;;;;;;4.17;1.30;;;;;;;20.67;23.90;98878.59;1759531;80;21205;-17
2021/03/23 09:41:37;;;;;;;7.43;1.40;;;;;;;20.68;24.08;98875.41;1734578;79;21229;-14
2021/03/23 09:44:10;;;;;;;3.87;1.22;;;;;;;20.68;24.36;98870.94;1694738;81;21171;-14
2021/03/23 09:46:44;;;;;;;1.95;1.20;;;;;;;20.69;24.00;98863.25;1743701;81;21125;-17
2021/03/23 09:49:26;;;;;;;1.30;0.93;;;;;;;20.69;23.70;98868.59;1696816;81;21232;-15
2021/03/23 09:52:09;;;;;;;3.50;0.88;;;;;;;20.68;24.36;98864.72;1738002;81;21254;-14
2021/03/23 09:54:56;;;;;;;6.50;1.10;;;;;;;20.69;24.10;98872.61;1715175;81;21145;-14
2021/03/23 09:57:29;;;;;;;2.20;1.00;;;;;;;20.69;23.93;98871.27;1736429;81;21274;-13
2021/03/23 10:00:00;;;;;;;17.30;9.38;;;;;;;20.69;23.67;98875.78;1732883;81;21205;-16
2021/03/23 10:02:33;;;;;;;20.48;10.08;;;;;;;20.44;18.90;98867.17;1710237;81;21669;-18
2021/03/23 10:05:20;;;;;;;18.73;9.85;;;;;;;20.01;19.96;98868.17;1749035;81;21236;-16
2021/03/23 10:07:52;;;;;;;15.75;9.75;;;;;;;19.98;20.98;98864.42;1740961;81;21770;-14
2021/03/23 10:10:32;;;;;;;15.70;8.98;;;;;;;20.09;21.66;98867.51;1704592;81;21207;-17
2021/03/23 10:13:22;;;;;;;14.20;8.98;;;;;;;20.23;22.16;98862.69;1740000;80;21144;-17
2021/03/23 10:15:51;;;;;;;12.15;7.47;;;;;;;20.39;22.60;98864.91;1721304;80;21178;-16
2021/03/23 10:18:29;;;;;;;15.20;8.35;;;;;;;20.59;23.03;98873.02;1729526;80;21173;-14
2021/03/23 10:21:13;;;;;;;16.17;8.08;;;;;;;20.72;23.35;98860.31;1744229;80;21190;-18
2021/03/23 10:23:53;;;;;;;14.55;7.62;;;;;;;20.89;23.62;98864.69;1766764;79;22135;-14
2021/03/23 10:26:21;;;;;;;12.68;7.35;;;;;;;21.02;23.87;98866.63;1737179;80;21197;-15
2021/03/23 10:28:50;;;;;;;17.65;6.75;;;;;;;21.13;24.08;98861.19;1762144;79;21113;-16
2021/03/23 10:31:40;;;;;;;12.25;7.03;;;;;;;21.23;24.33;98861.69;1762438;80;21138;-14
2021/03/23 10:34:22;;;;;;;11.57;6.25;;;;;;;21.32;24.51;98860.38;1748919;79;21174;-15
2021/03/23 10:37:05;;;;;;;10.18;5.97;;;;;;;21.41;24.73;98858.70;1757117;80;21195;-18
2021/03/23 10:39:47;;;;;;;8.70;5.80;;;;;;;21.51;24.86;98866.28;1701239;81;21251;-18
2021/03/23 10:42:28;;;;;;;12.18;5.62;;;;;;;21.59;25.01;98862.08;1733663;81;21200;-15
2021/03/23 10:45:27;;;;;;;8.35;5.65;;;;;;;21.67;25.19;98867.55;1691694;83;21224;-17
2021/03/23 10:48:27;;;;;;;10.10;5.58;;;;;;;21.74;25.29;98861.15;1724154;82;21232;-14
2021/03/23 10:51:25;;;;;;;5.85;3.90;;;;;;;21.80;25.43;98865.45;1732076;81;21281;-14
2021/03/23 10:54:13;;;;;;;5.35;2.50;;;;;;;21.87;25.83;98863.05;1764237;79;21233;-19
2021/03/23 10:56:48;;;;;;;1.70;1.52;;;;;;;21.94;25.10;98864.67;1777921;79;21545;-15
2021/03/23 10:59:32;;;;;;;16.95;9.38;;;;;;;21.66;20.93;98870.73;1684401;82;21232;-17
2021/03/23 11:02:12;;;;;;;18.82;9.95;;;;;;;21.18;19.78;98863.93;1716613;82;21185;-15
2021/03/23 11:05:10;;;;;;;17.92;7.72;;;;;;;20.88;20.78;98856.30;1714944;82;21129;-13
2021/03/23 11:07:55;;;;;;;15.25;7.85;;;;;;;20.81;21.49;98872.53;1766291;79;21239;-16
2021/03/23 11:10:32;;;;;;;15.13;7.42;;;;;;;20.78;21.85;98873.66;1737907;81;21219;-14
2021/03/23 11:13:17;;;;;;;12.55;6.67;;;;;;;20.81;21.92;98867.18;1819218;77;22771;-14
2021/03/23 11:15:50;;;;;;;9.98;6.50;;;;;;;20.76;22.10;98879.61;1799046;78;21172;-13
2021/03/23 11:18:30;;;;;;;9.75;6.12;;;;;;;20.74;22.31;98873.05;1788861;79;21242;-14
2021/03/23 11:21:03;;;;;;;9.63;5.92;;;;;;;20.77;22.50;98873.29;1789421;78;21055;-14
2021/03/23 11:23:42;;;;;;;9.08;5.15;;;;;;;20.80;22.79;98881.55;1803418;78;21602;-16
2021/03/23 11:26:17;;;;;;;11.12;4.55;;;;;;;20.83;22.31;98883.92;1787724;78;21629;-16
2021/03/23 11:28:46;;;;;;;5.53;4.55;;;;;;;20.81;22.15;98884.56;1788566;78;21188;-18
2021/03/23 11:31:16;;;;;;;9.48;6.03;;;;;;;20.78;21.94;98897.72;1761512;80;21358;-14
2021/03/23 11:33:46;;;;;;;7.87;4.03;;;;;;;20.52;18.04;98897.25;1730455;80;21213;-14
2021/03/23 11:36:14;;;;;;;6.70;2.45;;;;;;;19.66;17.91;98898.11;1728003;81;21186;-16
2021/03/23 11:38:42;;;;;;;5.20;1.75;;;;;;;18.77;18.17;98901.72;1765310;80;21242;-15
2021/03/23 11:41:15;;;;;;;4.08;1.55;;;;;;;18.00;18.88;98908.44;1736459;81;21170;-15
2021/03/23 11:43:47;;;;;;;2.55;1.00;;;;;;;17.43;18.94;98924.10;1708548;81;21170;-15
2021/03/23 11:46:27;;;;;;;2.67;0.80;;;;;;;16.79;18.95;98949.88;1735907;80;21172;-17
2021/03/23 11:49:09;;;;;;;1.07;0.75;;;;;;;16.01;19.19;98918.89;1747272;80;21131;-15
2021/03/23 11:51:46;;;;;;;10.20;1.30;;;;;;;15.34;21.01;98911.70;1698807;82;21180;-14
2021/03/23 11:54:16;;;;;;;3.00;1.60;;;;;;;15.46;24.77;98909.57;1725872;81;21122;-15
2021/03/23 11:56:45;;;;;;;3.67;1.55;;;;;;;15.92;26.99;98913.70;1704704;82;21155;-15
2021/03/23 11:59:14;;;;;;;4.28;1.52;;;;;;;16.42;28.33;98913.42;1725629;80;21252;-15
2021/03/23 12:01:43;;;;;;;3.65;1.60;;;;;;;16.88;28.31;98909.44;1758621;80;21352;-15
2021/03/23 12:04:13;;;;;;;1.57;1.47;;;;;;;17.29;28.12;98899.47;1753244;80;21215;-15
2021/03/23 12:07:13;;;;;;;3.08;1.50;;;;;;;17.64;27.98;98901.72;1756844;80;21576;-17
2021/03/23 12:09:46;;;;;;;4.20;1.70;;;;;;;17.96;27.74;98890.52;1731765;80;21214;-14
2021/03/23 12:12:31;;;;;;;3.58;1.65;;;;;;;18.33;27.51;98894.39;1757902;80;21169;-16
2021/03/23 12:15:22;;;;;;;1.90;1.40;;;;;;;18.63;27.38;98897.48;1762605;80;21180;-15
2021/03/23 12:17:56;;;;;;;5.83;1.30;;;;;;;18.90;27.23;98892.66;1798401;78;21190;-13